createdAt,value
2022-12-03T00:01:34.085Z,99066.19
2022-12-03T00:04:02.239Z,99067.22
2022-12-03T00:06:34.486Z,99067.06
2022-12-03T00:09:02.771Z,99057.09
2022-12-03T00:11:30.763Z,99067.75
2022-12-03T00:13:58.762Z,99066.09
2022-12-03T00:16:28.247Z,99065.25
2022-12-03T00:18:56.271Z,99072.53
2022-12-03T00:21:24.885Z,99057.31
2022-12-03T00:23:53.065Z,99067.84
2022-12-03T00:26:21.141Z,99068.63
2022-12-03T00:28:49.714Z,99071.75
2022-12-03T00:31:17.928Z,99074.75
2022-12-03T00:33:47.228Z,99081.72
2022-12-03T00:36:15.188Z,99077.09
2022-12-03T00:38:43.066Z,99074.50
2022-12-03T00:41:11.044Z,99076.31
2022-12-03T00:43:39.079Z,99084.47
2022-12-03T00:46:07.384Z,99083.25
2022-12-03T00:48:35.496Z,99086.03
2022-12-03T00:51:04.785Z,99079.44
2022-12-03T00:53:32.736Z,99084.75
2022-12-03T00:56:01.682Z,99082.47
2022-12-03T00:58:29.578Z,99060.31
2022-12-03T01:00:57.517Z,99072.75
2022-12-03T01:03:25.498Z,99065.69
2022-12-03T01:05:53.415Z,99066.66
2022-12-03T01:08:22.704Z,99066.94
2022-12-03T01:10:50.699Z,99065.47
2022-12-03T01:13:18.617Z,99069.94
2022-12-03T01:15:46.642Z,99070.38
2022-12-03T01:18:14.615Z,99069.97
2022-12-03T01:20:42.529Z,99058.28
2022-12-03T01:23:10.509Z,99056.56
2022-12-03T01:25:39.748Z,99048.03
2022-12-03T01:28:07.710Z,99044.94
2022-12-03T01:30:55.715Z,99053.84
2022-12-03T01:33:22.756Z,99050.94
2022-12-03T01:35:50.636Z,99043.03
2022-12-03T01:38:18.657Z,99047.00
2022-12-03T01:40:49.999Z,99052.91
2022-12-03T01:43:18.012Z,99053.19
2022-12-03T01:45:45.915Z,99049.63
2022-12-03T01:48:16.704Z,99044.13
2022-12-03T01:50:45.433Z,99045.66
2022-12-03T01:53:18.376Z,99050.59
2022-12-03T01:55:49.069Z,99055.59
2022-12-03T01:58:18.554Z,99049.28
2022-12-03T02:00:46.423Z,99054.41
2022-12-03T02:03:19.667Z,99049.28
2022-12-03T02:05:47.672Z,99057.16
2022-12-03T02:08:32.360Z,99051.69
2022-12-03T02:11:06.474Z,99060.50
2022-12-03T02:13:34.641Z,99052.97
2022-12-03T02:16:02.700Z,99048.91
2022-12-03T02:18:30.738Z,99042.78
2022-12-03T02:21:06.974Z,99047.44
2022-12-03T02:23:41.900Z,99045.75
2022-12-03T02:26:11.696Z,99047.03
2022-12-03T02:28:39.812Z,99052.53
2022-12-03T02:31:08.358Z,99054.22
2022-12-03T02:33:37.347Z,99055.75
2022-12-03T02:36:06.009Z,99059.50
2022-12-03T02:38:35.768Z,99059.75
2022-12-03T02:41:08.423Z,99056.63
2022-12-03T02:43:37.024Z,99065.06
2022-12-03T02:46:06.751Z,99063.25
2022-12-03T02:48:36.744Z,99057.81
2022-12-03T02:51:08.940Z,99057.50
2022-12-03T02:53:42.355Z,99060.94
2022-12-03T02:56:13.064Z,99059.66
2022-12-03T02:58:43.948Z,99060.50
2022-12-03T03:01:12.588Z,99065.75
2022-12-03T03:03:40.879Z,99059.47
2022-12-03T03:06:10.322Z,99062.84
2022-12-03T03:08:39.096Z,99054.78
2022-12-03T03:11:07.449Z,99043.47
2022-12-03T03:13:36.769Z,99047.84
2022-12-03T03:16:07.547Z,99051.97
2022-12-03T03:18:36.393Z,99043.28
2022-12-03T03:21:05.391Z,99049.78
2022-12-03T03:23:33.314Z,99048.44
2022-12-03T03:26:03.991Z,99042.69
2022-12-03T03:28:33.408Z,99042.28
2022-12-03T03:31:05.318Z,99045.22
2022-12-03T03:33:35.718Z,99039.16
2022-12-03T03:36:04.345Z,99048.09
2022-12-03T03:38:33.129Z,99044.28
2022-12-03T03:41:03.331Z,99046.56
2022-12-03T03:43:34.760Z,99048.06
2022-12-03T03:46:04.828Z,99044.72
2022-12-03T03:48:35.784Z,99039.88
2022-12-03T03:51:09.017Z,99041.56
2022-12-03T03:53:37.887Z,99041.94
2022-12-03T03:56:06.723Z,99037.88
2022-12-03T03:58:34.771Z,99039.50
2022-12-03T04:01:02.904Z,99035.00
2022-12-03T04:03:36.190Z,99030.97
2022-12-03T04:06:05.886Z,99037.66
2022-12-03T04:08:33.900Z,99040.47
2022-12-03T04:11:19.530Z,99047.09
2022-12-03T04:13:47.449Z,99049.19
2022-12-03T04:16:15.436Z,99057.75
2022-12-03T04:18:44.818Z,99058.84
2022-12-03T04:21:32.732Z,99052.69
2022-12-03T04:24:01.562Z,99056.25
2022-12-03T04:26:47.439Z,99053.47
2022-12-03T04:29:19.057Z,99057.22
2022-12-03T04:32:04.848Z,99056.41
2022-12-03T04:34:52.498Z,99057.94
2022-12-03T04:37:21.043Z,99051.28
2022-12-03T04:39:49.294Z,99048.66
2022-12-03T04:42:17.303Z,99049.84
2022-12-03T04:44:45.330Z,99048.38
2022-12-03T04:47:15.331Z,99043.53
2022-12-03T04:49:46.220Z,99040.91
2022-12-03T04:52:16.084Z,99047.38
2022-12-03T04:54:44.828Z,99047.94
2022-12-03T04:57:13.231Z,99047.09
2022-12-03T04:59:41.194Z,99053.78
2022-12-03T05:02:09.403Z,99046.88
2022-12-03T05:04:37.472Z,99038.97
2022-12-03T05:07:06.781Z,99042.81
2022-12-03T05:09:34.752Z,99037.72
2022-12-03T05:12:03.825Z,99051.69
2022-12-03T05:14:31.863Z,99054.00
2022-12-03T05:16:59.980Z,99059.44
2022-12-03T05:19:48.423Z,99066.50
2022-12-03T05:22:16.723Z,99063.66
2022-12-03T05:24:44.609Z,99066.38
2022-12-03T05:27:12.494Z,99067.81
2022-12-03T05:29:40.446Z,99057.50
2022-12-03T05:32:08.335Z,99047.50
2022-12-03T05:34:40.647Z,99045.34
2022-12-03T05:37:08.590Z,99036.13
2022-12-03T05:39:37.930Z,99032.41
2022-12-03T05:42:23.491Z,99038.09
2022-12-03T05:44:51.766Z,99040.94
2022-12-03T05:47:19.864Z,99045.06
2022-12-03T05:49:47.801Z,99044.16
2022-12-03T05:52:15.689Z,99036.41
2022-12-03T05:54:44.943Z,99053.53
2022-12-03T05:57:12.913Z,99052.97
2022-12-03T05:59:40.771Z,99049.38
2022-12-03T06:02:08.759Z,99050.91
2022-12-03T06:04:36.689Z,99040.81
2022-12-03T06:07:06.623Z,99040.03
2022-12-03T06:09:40.147Z,99036.59
2022-12-03T06:12:09.834Z,99049.81
2022-12-03T06:14:37.726Z,99046.31
2022-12-03T06:17:05.896Z,99044.63
2022-12-03T06:19:34.721Z,99047.44
2022-12-03T06:22:02.668Z,99054.50
2022-12-03T06:24:30.619Z,99046.59
2022-12-03T06:26:58.608Z,99053.78
2022-12-03T06:29:27.870Z,99056.31
2022-12-03T06:31:55.903Z,99059.81
2022-12-03T06:34:23.937Z,99062.00
2022-12-03T06:36:52.116Z,99058.81
2022-12-03T06:39:22.733Z,99057.63
2022-12-03T06:41:50.810Z,99053.38
2022-12-03T06:44:18.874Z,99048.13
2022-12-03T06:46:48.256Z,99056.13
2022-12-03T06:49:16.243Z,99058.78
2022-12-03T06:51:44.226Z,99063.59
2022-12-03T06:54:12.179Z,99069.41
2022-12-03T06:56:45.113Z,99074.66
2022-12-03T06:59:13.453Z,99062.63
2022-12-03T07:01:41.398Z,99068.75
2022-12-03T07:04:11.039Z,99069.47
2022-12-03T07:06:39.031Z,99062.06
2022-12-03T07:09:06.922Z,99066.03
2022-12-03T07:11:40.520Z,99067.03
2022-12-03T07:14:11.402Z,99063.81
2022-12-03T07:16:40.332Z,99068.00
2022-12-03T07:19:10.150Z,99066.38
2022-12-03T07:21:38.085Z,99070.59
2022-12-03T07:24:06.516Z,99069.59
2022-12-03T07:26:34.553Z,99081.16
2022-12-03T07:29:02.586Z,99078.44
2022-12-03T07:31:30.548Z,99081.16
2022-12-03T07:33:58.662Z,99078.41
2022-12-03T07:36:27.925Z,99079.81
2022-12-03T07:38:55.837Z,99088.75
2022-12-03T07:41:23.725Z,99090.56
2022-12-03T07:43:51.743Z,99082.03
2022-12-03T07:46:19.712Z,99084.69
2022-12-03T07:48:47.677Z,99077.94
2022-12-03T07:51:15.777Z,99076.03
2022-12-03T07:53:45.211Z,99073.53
2022-12-03T07:56:13.122Z,99064.56
2022-12-03T07:58:41.260Z,99071.25
2022-12-03T08:01:10.492Z,99066.00
2022-12-03T08:03:39.582Z,99078.31
2022-12-03T08:06:08.026Z,99078.31
2022-12-03T08:08:36.152Z,99071.56
2022-12-03T08:11:06.329Z,99084.78
2022-12-03T08:13:35.847Z,99075.47
2022-12-03T08:16:16.663Z,99070.44
2022-12-03T08:18:44.829Z,99069.00
2022-12-03T08:21:14.153Z,99070.41
2022-12-03T08:23:42.763Z,99066.50
2022-12-03T08:26:22.510Z,99067.38
2022-12-03T08:28:50.998Z,99065.34
2022-12-03T08:31:21.191Z,99058.09
2022-12-03T08:33:51.255Z,99066.56
2022-12-03T08:36:23.189Z,99062.44
2022-12-03T08:38:53.041Z,99074.38
2022-12-03T08:41:37.083Z,99070.41
2022-12-03T08:44:21.596Z,99070.78
2022-12-03T08:46:54.081Z,99074.91
2022-12-03T08:49:23.549Z,99077.22
2022-12-03T08:51:57.137Z,99077.13
2022-12-03T08:54:26.109Z,99078.50
2022-12-03T08:56:56.428Z,99080.72
2022-12-03T08:59:29.407Z,99077.13
2022-12-03T09:01:57.910Z,99084.72
2022-12-03T09:04:31.095Z,99064.44
2022-12-03T09:06:59.634Z,99069.50
2022-12-03T09:09:27.671Z,99076.00
2022-12-03T09:11:57.148Z,99078.88
2022-12-03T09:14:25.069Z,99087.50
2022-12-03T09:16:55.864Z,99080.94
2022-12-03T09:19:24.838Z,99086.53
2022-12-03T09:21:53.319Z,99088.22
2022-12-03T09:24:21.645Z,99092.34
2022-12-03T09:26:49.622Z,99091.03
2022-12-03T09:29:18.880Z,99085.16
2022-12-03T09:31:46.961Z,99089.16
2022-12-03T09:34:14.989Z,99077.28
2022-12-03T09:36:42.961Z,99081.19
2022-12-03T09:39:10.856Z,99074.59
2022-12-03T09:41:38.975Z,99083.91
2022-12-03T09:44:10.902Z,99077.13
2022-12-03T09:46:45.250Z,99085.63
2022-12-03T09:49:16.617Z,99078.22
2022-12-03T09:51:45.509Z,99079.28
2022-12-03T09:54:23.651Z,99075.69
2022-12-03T09:56:51.691Z,99082.50
2022-12-03T09:59:19.974Z,99082.50
2022-12-03T10:01:49.646Z,99078.25
2022-12-03T10:04:17.883Z,99084.88
2022-12-03T10:06:46.461Z,99075.50
2022-12-03T10:09:20.962Z,99072.53
2022-12-03T10:11:49.459Z,99066.44
2022-12-03T10:14:19.113Z,99066.25
2022-12-03T10:16:47.750Z,99067.66
2022-12-03T10:19:23.384Z,99061.41
2022-12-03T10:21:51.565Z,99055.19
2022-12-03T10:24:22.054Z,99057.16
2022-12-03T10:26:51.557Z,99049.66
2022-12-03T10:29:21.808Z,99046.78
2022-12-03T10:31:56.646Z,99045.84
2022-12-03T10:34:32.032Z,99050.50
2022-12-03T10:37:15.487Z,99050.38
2022-12-03T10:39:58.769Z,99045.09
2022-12-03T10:42:28.911Z,99050.50
2022-12-03T10:45:19.248Z,99057.31
2022-12-03T10:48:03.776Z,99044.78
2022-12-03T10:50:33.793Z,99053.88
2022-12-03T10:53:01.756Z,99059.97
2022-12-03T10:55:35.324Z,99061.84
2022-12-03T10:58:03.409Z,99058.56
2022-12-03T11:00:31.369Z,99055.88
2022-12-03T11:02:59.301Z,99057.16
2022-12-03T11:05:28.565Z,99056.13
2022-12-03T11:07:58.222Z,99052.69
2022-12-03T11:10:26.569Z,99050.19
2022-12-03T11:13:43.467Z,99050.06
2022-12-03T11:16:11.750Z,99043.66
2022-12-03T11:18:59.298Z,99036.06
2022-12-03T11:21:27.321Z,99038.22
2022-12-03T11:24:18.672Z,99042.44
2022-12-03T11:27:26.239Z,99040.28
2022-12-03T11:30:02.071Z,99045.25
2022-12-03T11:33:00.886Z,99036.59
2022-12-03T11:35:36.764Z,99036.59
2022-12-03T11:38:38.175Z,99039.81
2022-12-03T11:41:12.426Z,99032.16
2022-12-03T11:44:01.379Z,99035.56
2022-12-03T11:46:39.206Z,99034.78
2022-12-03T11:49:29.840Z,99031.03
2022-12-03T11:51:58.754Z,99033.34
2022-12-03T11:54:27.213Z,99020.53
2022-12-03T11:56:57.229Z,99014.00
2022-12-03T11:59:25.133Z,99017.88
2022-12-03T12:01:53.060Z,99018.94
2022-12-03T12:04:31.079Z,99026.91
2022-12-03T12:06:59.196Z,99022.41
2022-12-03T12:09:49.690Z,99031.38
2022-12-03T12:12:30.085Z,99029.72
2022-12-03T12:14:58.828Z,99026.09
2022-12-03T12:17:34.336Z,99022.13
2022-12-03T12:20:25.605Z,99023.47
2022-12-03T12:22:54.442Z,99024.22
2022-12-03T12:25:41.345Z,99020.66
2022-12-03T12:28:11.069Z,99009.13
2022-12-03T12:30:40.318Z,99024.09
2022-12-03T12:33:15.261Z,99017.56
2022-12-03T12:35:43.300Z,99011.50
2022-12-03T12:38:17.585Z,99010.69
2022-12-03T12:40:49.076Z,99018.19
2022-12-03T12:43:24.957Z,99021.78
2022-12-03T12:46:46.211Z,99016.56
2022-12-03T12:49:02.603Z,99021.13
2022-12-03T12:51:30.841Z,99009.13
2022-12-03T12:53:58.901Z,99013.50
2022-12-03T12:56:30.194Z,99010.97
2022-12-03T12:59:10.457Z,98995.06
2022-12-03T13:01:38.561Z,99013.03
2022-12-03T13:04:12.761Z,99007.25
2022-12-03T13:06:41.234Z,99008.38
2022-12-03T13:09:15.937Z,99008.78
2022-12-03T13:11:45.921Z,99010.31
2022-12-03T13:14:18.124Z,99013.72
2022-12-03T13:16:47.484Z,99012.81
2022-12-03T13:19:23.669Z,99019.28
2022-12-03T13:21:53.609Z,99021.53
2022-12-03T13:24:31.151Z,99023.56
2022-12-03T13:27:00.561Z,99016.91
2022-12-03T13:29:29.904Z,99025.69
2022-12-03T13:32:00.069Z,99026.38
2022-12-03T13:34:29.422Z,99020.97
2022-12-03T13:36:58.731Z,99024.59
2022-12-03T13:39:33.111Z,99031.66
2022-12-03T13:42:34.145Z,99031.91
2022-12-03T13:45:29.329Z,99024.50
2022-12-03T13:47:59.950Z,99012.16
2022-12-03T13:50:35.262Z,99020.28
2022-12-03T13:53:10.614Z,99024.72
2022-12-03T13:55:43.450Z,99024.41
2022-12-03T13:58:11.450Z,99020.03
2022-12-03T14:00:40.806Z,99026.47
2022-12-03T14:03:08.789Z,99025.22
2022-12-03T14:05:36.760Z,99047.59
2022-12-03T14:08:06.134Z,99048.97
2022-12-03T14:10:34.249Z,99044.13
2022-12-03T14:13:02.216Z,99045.09
2022-12-03T14:15:30.128Z,99049.13
2022-12-03T14:17:59.457Z,99045.31
2022-12-03T14:20:27.454Z,99040.06
2022-12-03T14:22:59.206Z,99040.78
2022-12-03T14:25:27.957Z,99040.66
2022-12-03T14:27:55.896Z,99030.59
2022-12-03T14:30:23.776Z,99029.25
2022-12-03T14:32:51.845Z,99026.22
2022-12-03T14:35:21.104Z,99038.31
2022-12-03T14:37:49.023Z,99039.91
2022-12-03T14:40:21.401Z,99035.00
2022-12-03T14:42:50.003Z,99043.50
2022-12-03T14:45:17.938Z,99024.34
2022-12-03T14:47:45.820Z,99030.91
2022-12-03T14:50:14.407Z,99030.59
2022-12-03T14:52:43.882Z,99027.75
2022-12-03T14:55:12.001Z,99037.28
2022-12-03T14:57:40.022Z,99040.19
2022-12-03T15:00:09.083Z,99041.19
2022-12-03T15:02:37.038Z,99040.16
2022-12-03T15:05:05.256Z,99035.78
2022-12-03T15:07:33.450Z,99034.22
2022-12-03T15:10:02.801Z,99041.97
2022-12-03T15:12:31.596Z,99046.91
2022-12-03T15:14:59.594Z,99043.84
2022-12-03T15:17:31.594Z,99051.44
2022-12-03T15:20:00.375Z,99048.34
2022-12-03T15:22:28.276Z,99054.25
2022-12-03T15:24:56.240Z,99053.75
2022-12-03T15:27:25.551Z,99052.63
2022-12-03T15:29:53.678Z,99046.13
2022-12-03T15:32:21.719Z,99058.09
2022-12-03T15:34:51.373Z,99049.38
2022-12-03T15:37:19.313Z,99051.22
2022-12-03T15:39:48.851Z,99050.34
2022-12-03T15:42:19.506Z,99055.22
2022-12-03T15:44:48.994Z,99061.53
2022-12-03T15:47:16.973Z,99068.59
2022-12-03T15:49:44.898Z,99057.44
2022-12-03T15:52:12.888Z,99059.03
2022-12-03T15:54:40.862Z,99061.69
2022-12-03T15:57:08.738Z,99054.72
2022-12-03T15:59:36.694Z,99062.50
2022-12-03T16:02:06.154Z,99060.91
2022-12-03T16:04:34.183Z,99057.59
2022-12-03T16:07:02.160Z,99057.44
2022-12-03T16:09:30.083Z,99066.53
2022-12-03T16:11:58.022Z,99060.75
2022-12-03T16:14:25.966Z,99065.03
2022-12-03T16:16:55.066Z,99064.06
2022-12-03T16:19:24.362Z,99062.19
2022-12-03T16:21:52.261Z,99061.00
2022-12-03T16:24:20.183Z,99062.44
2022-12-03T16:26:48.105Z,99053.41
2022-12-03T16:29:16.060Z,99055.88
2022-12-03T16:31:44.372Z,99055.09
2022-12-03T16:34:12.348Z,99061.88
2022-12-03T16:36:41.742Z,99055.28
2022-12-03T16:39:09.649Z,99055.13
2022-12-03T16:41:37.757Z,99047.69
2022-12-03T16:44:06.408Z,99062.38
2022-12-03T16:46:34.467Z,99057.19
2022-12-03T16:49:03.867Z,99077.19
2022-12-03T16:51:31.763Z,99063.72
2022-12-03T16:54:01.120Z,99064.56
2022-12-03T16:56:29.016Z,99060.31
2022-12-03T16:58:57.972Z,99058.25
2022-12-03T17:01:25.846Z,99061.16
2022-12-03T17:03:53.757Z,99058.19
2022-12-03T17:06:21.662Z,99055.97
2022-12-03T17:08:50.205Z,99063.94
2022-12-03T17:11:19.802Z,99054.19
2022-12-03T17:13:47.939Z,99061.59
2022-12-03T17:16:15.971Z,99064.00
2022-12-03T17:18:44.011Z,99054.16
2022-12-03T17:21:12.209Z,99055.88
2022-12-03T17:23:40.232Z,99052.81
2022-12-03T17:26:08.183Z,99053.06
2022-12-03T17:28:37.606Z,99048.06
2022-12-03T17:31:05.796Z,99049.47
2022-12-03T17:33:33.838Z,99036.09
2022-12-03T17:36:01.802Z,99031.34
2022-12-03T17:38:32.805Z,99036.19
2022-12-03T17:41:05.414Z,99042.41
2022-12-03T17:43:33.314Z,99035.88
2022-12-03T17:46:02.624Z,99028.34
2022-12-03T17:48:31.395Z,99032.03
2022-12-03T17:50:59.541Z,99027.59
2022-12-03T17:53:27.420Z,99024.16
2022-12-03T17:55:55.758Z,99032.34
2022-12-03T17:58:23.719Z,99022.97
2022-12-03T18:00:51.636Z,99031.28
2022-12-03T18:03:20.938Z,99035.03
2022-12-03T18:05:48.889Z,99036.22
2022-12-03T18:08:17.002Z,99038.94
2022-12-03T18:10:45.048Z,99034.88
2022-12-03T18:13:12.986Z,99031.25
2022-12-03T18:15:40.972Z,99029.38
2022-12-03T18:18:08.949Z,99028.13
2022-12-03T18:20:38.413Z,99028.06
2022-12-03T18:23:06.793Z,99023.31
2022-12-03T18:25:34.815Z,99014.88
2022-12-03T18:28:02.772Z,99010.59
2022-12-03T18:30:30.712Z,99004.56
2022-12-03T18:32:58.648Z,98992.38
2022-12-03T18:35:26.701Z,98995.38
2022-12-03T18:37:56.077Z,99008.06
2022-12-03T18:40:27.163Z,99014.66
2022-12-03T18:42:55.163Z,99010.63
2022-12-03T18:45:23.075Z,99017.19
2022-12-03T18:47:51.203Z,99019.38
2022-12-03T18:50:19.142Z,99013.16
2022-12-03T18:52:47.030Z,99009.94
2022-12-03T18:55:19.731Z,99002.09
2022-12-03T18:57:47.680Z,99003.13
2022-12-03T19:00:17.086Z,99005.44
2022-12-03T19:03:02.420Z,99004.69
2022-12-03T19:05:32.785Z,98996.00
2022-12-03T19:08:00.945Z,98998.16
2022-12-03T19:10:30.428Z,99002.53
2022-12-03T19:12:58.525Z,98993.84
2022-12-03T19:15:26.470Z,98991.72
2022-12-03T19:17:54.392Z,98991.69
2022-12-03T19:20:22.315Z,98988.84
2022-12-03T19:22:50.216Z,98987.34
2022-12-03T19:25:18.287Z,98990.44
2022-12-03T19:27:49.300Z,98987.16
2022-12-03T19:30:17.743Z,98993.00
2022-12-03T19:32:45.879Z,98990.31
2022-12-03T19:35:13.773Z,98993.47
2022-12-03T19:37:41.756Z,98999.38
2022-12-03T19:40:11.360Z,98994.38
2022-12-03T19:42:39.576Z,99001.19
2022-12-03T19:45:11.616Z,99007.97
2022-12-03T19:47:40.232Z,99000.47
2022-12-03T19:50:09.683Z,99003.31
2022-12-03T19:52:37.822Z,99001.53
2022-12-03T19:55:06.506Z,98989.19
2022-12-03T19:57:34.412Z,99000.03
2022-12-03T20:00:02.380Z,98999.34
2022-12-03T20:02:41.623Z,99006.03
2022-12-03T20:05:09.742Z,98995.34
2022-12-03T20:07:37.914Z,98990.81
2022-12-03T20:10:07.306Z,99004.44
2022-12-03T20:12:35.347Z,98995.03
2022-12-03T20:15:03.282Z,98997.84
2022-12-03T20:17:31.175Z,98997.81
2022-12-03T20:20:00.515Z,98990.34
2022-12-03T20:22:28.383Z,98996.06
2022-12-03T20:24:56.280Z,98991.47
2022-12-03T20:27:24.197Z,98982.31
2022-12-03T20:29:52.131Z,98983.34
2022-12-03T20:32:20.382Z,98984.19
2022-12-03T20:34:49.699Z,98985.66
2022-12-03T20:37:19.107Z,98999.63
2022-12-03T20:39:47.040Z,98998.78
2022-12-03T20:42:14.945Z,99002.34
2022-12-03T20:44:42.869Z,99001.31
2022-12-03T20:47:10.823Z,99005.63
2022-12-03T20:49:40.323Z,99003.31
2022-12-03T20:52:08.198Z,98989.88
2022-12-03T20:54:37.623Z,98993.38
2022-12-03T20:57:05.679Z,98999.63
2022-12-03T20:59:33.728Z,98994.31
2022-12-03T21:02:01.849Z,98999.66
2022-12-03T21:04:30.006Z,98998.38
2022-12-03T21:06:57.949Z,98996.16
2022-12-03T21:09:26.040Z,98993.31
2022-12-03T21:11:55.379Z,98997.84
2022-12-03T21:14:23.363Z,99000.56
2022-12-03T21:17:08.343Z,98992.91
2022-12-03T21:19:37.385Z,98986.44
2022-12-03T21:22:05.745Z,98994.06
2022-12-03T21:24:33.663Z,98995.19
2022-12-03T21:27:03.292Z,98997.09
2022-12-03T21:29:31.378Z,98996.53
2022-12-03T21:31:59.567Z,99000.47
2022-12-03T21:34:32.800Z,98995.47
2022-12-03T21:37:04.073Z,98990.06
2022-12-03T21:39:32.015Z,98985.91
2022-12-03T21:42:33.271Z,98981.81
2022-12-03T21:44:49.351Z,98984.03
2022-12-03T21:47:22.380Z,98990.56
2022-12-03T21:49:50.659Z,98991.34
2022-12-03T21:52:18.650Z,98986.69
2022-12-03T21:54:46.790Z,98990.56
2022-12-03T21:57:14.729Z,98976.69
2022-12-03T21:59:42.614Z,98976.72
2022-12-03T22:02:12.305Z,98982.69
2022-12-03T22:04:40.880Z,98985.81
2022-12-03T22:07:08.805Z,98980.00
2022-12-03T22:09:36.883Z,98972.63
2022-12-03T22:12:05.364Z,98977.59
2022-12-03T22:14:33.331Z,98983.03
2022-12-03T22:17:01.324Z,98978.59
2022-12-03T22:19:30.671Z,98978.44
2022-12-03T22:21:58.569Z,98967.38
2022-12-03T22:24:26.595Z,98970.38
2022-12-03T22:26:55.039Z,98983.47
2022-12-03T22:29:23.139Z,98983.00
2022-12-03T22:31:51.031Z,98985.97
2022-12-03T22:34:18.962Z,98986.50
2022-12-03T22:36:48.303Z,98989.25
2022-12-03T22:39:16.351Z,98990.19
2022-12-03T22:41:44.270Z,98991.59
2022-12-03T22:44:12.198Z,98983.16
2022-12-03T22:46:40.286Z,98982.59
2022-12-03T22:49:13.835Z,98982.69
2022-12-03T22:51:41.996Z,98983.84
2022-12-03T22:54:12.527Z,98982.31
2022-12-03T22:56:40.935Z,98987.03
2022-12-03T22:59:08.921Z,98987.81
2022-12-03T23:01:38.970Z,98992.50
2022-12-03T23:04:08.887Z,98989.66
2022-12-03T23:06:37.842Z,98990.25
2022-12-03T23:09:07.298Z,98987.91
2022-12-03T23:11:37.375Z,98981.81
2022-12-03T23:14:05.526Z,98984.03
2022-12-03T23:16:34.433Z,98978.66
2022-12-03T23:19:03.616Z,98977.19
2022-12-03T23:21:34.109Z,98977.56
2022-12-03T23:24:04.065Z,98973.34
2022-12-03T23:26:37.667Z,98964.16
2022-12-03T23:29:06.073Z,98970.16
2022-12-03T23:31:35.033Z,98963.41
2022-12-03T23:34:04.057Z,98961.78
2022-12-03T23:36:33.849Z,98955.19
2022-12-03T23:39:02.129Z,98954.91
2022-12-03T23:41:30.076Z,98936.31
2022-12-03T23:43:59.314Z,98958.63
2022-12-03T23:46:28.513Z,98962.97
2022-12-03T23:48:58.546Z,98966.41
2022-12-03T23:51:26.785Z,98971.31
2022-12-03T23:53:56.164Z,98976.16
2022-12-03T23:56:26.648Z,98982.44
2022-12-03T23:58:54.772Z,98965.41
